Time;durP1;ratioP1;P1;durP2;ratioP2;P2;SDS_P1;SDS_P2;PMS_P1;PMS_P2;Temp;Humidity;BMP_temperature;BMP_pressure;BME280_temperature;BME280_humidity;BME280_pressure;Samples;Min_cycle;Max_cycle;Signal;HPM_P1;HPM_P2
2020/12/23 00:01:19;;;;;;;7.50;3.80;;;;;;;-1.28;74.80;100322.28;1760634;79;21661;-58
2020/12/23 00:03:46;;;;;;;5.10;2.57;;;;;;;-1.27;74.90;100324.03;1740862;80;22012;-57
2020/12/23 00:06:14;;;;;;;7.83;4.27;;;;;;;-1.30;75.01;100320.06;1763962;79;21189;-54
2020/12/23 00:08:42;;;;;;;9.37;2.77;;;;;;;-1.33;75.07;100322.23;1762230;79;21759;-56
2020/12/23 00:11:09;;;;;;;7.53;3.47;;;;;;;-1.34;75.15;100324.42;1732833;80;23543;-58
2020/12/23 00:13:36;;;;;;;7.57;4.17;;;;;;;-1.38;75.08;100323.96;1742289;80;21195;-56
2020/12/23 00:16:07;;;;;;;7.27;3.60;;;;;;;-1.38;75.04;100316.03;1737126;80;21162;-58
2020/12/23 00:18:34;;;;;;;7.27;3.90;;;;;;;-1.41;74.96;100316.43;1764235;79;21549;-56
2020/12/23 00:21:01;;;;;;;5.60;3.43;;;;;;;-1.42;74.98;100308.95;1737322;80;21131;-58
2020/12/23 00:23:28;;;;;;;10.47;4.70;;;;;;;-1.43;74.91;100303.21;1763145;79;21413;-58
2020/12/23 00:25:55;;;;;;;12.37;4.93;;;;;;;-1.43;74.96;100302.33;1728271;79;21614;-55
2020/12/23 00:28:22;;;;;;;10.03;4.13;;;;;;;-1.43;75.05;100300.57;1705717;81;21236;-58
2020/12/23 00:30:50;;;;;;;6.47;3.70;;;;;;;-1.41;75.10;100300.59;1705781;81;21195;-56
2020/12/23 00:33:19;;;;;;;8.20;4.27;;;;;;;-1.40;75.14;100295.77;1715757;81;21235;-58
2020/12/23 00:35:46;;;;;;;9.67;4.17;;;;;;;-1.41;75.22;100291.34;1717877;81;22143;-55
2020/12/23 00:38:13;;;;;;;10.70;4.70;;;;;;;-1.41;75.10;100285.63;1716164;81;21226;-58
2020/12/23 00:40:40;;;;;;;11.83;5.23;;;;;;;-1.42;75.07;100278.58;1714778;81;21234;-58
2020/12/23 00:43:07;;;;;;;9.20;4.30;;;;;;;-1.40;75.09;100275.95;1712989;81;21149;-57
2020/12/23 00:45:36;;;;;;;8.87;4.57;;;;;;;-1.40;75.04;100266.72;1726926;81;21170;-56
2020/12/23 00:48:04;;;;;;;10.13;4.37;;;;;;;-1.39;75.02;100259.24;1718903;80;21216;-58
2020/12/23 00:50:31;;;;;;;6.77;3.77;;;;;;;-1.39;75.02;100266.73;1720744;80;21601;-57
2020/12/23 00:52:59;;;;;;;7.23;3.47;;;;;;;-1.37;74.90;100255.75;1717110;81;21209;-58
2020/12/23 00:55:26;;;;;;;5.43;2.53;;;;;;;-1.39;74.82;100255.28;1697511;81;21213;-56
2020/12/23 00:57:53;;;;;;;8.07;4.07;;;;;;;-1.39;74.86;100252.20;1712662;81;21611;-58
2020/12/23 01:00:20;;;;;;;7.13;2.93;;;;;;;-1.40;74.86;100249.55;1702152;81;21351;-57
2020/12/23 01:02:47;;;;;;;5.03;2.87;;;;;;;-1.41;74.89;100242.50;1717400;81;21255;-58
2020/12/23 01:05:15;;;;;;;7.13;2.57;;;;;;;-1.42;74.85;100241.61;1717664;81;21219;-58
2020/12/23 01:07:42;;;;;;;7.17;3.50;;;;;;;-1.42;74.90;100240.72;1717983;81;21198;-59
2020/12/23 01:10:09;;;;;;;4.50;2.47;;;;;;;-1.42;74.87;100246.89;1713271;81;21653;-59
2020/12/23 01:12:36;;;;;;;5.53;2.53;;;;;;;-1.41;74.85;100243.38;1718896;81;22050;-57
2020/12/23 01:15:03;;;;;;;5.67;2.90;;;;;;;-1.41;74.92;100239.86;1716798;81;21303;-58
2020/12/23 01:17:30;;;;;;;10.30;4.17;;;;;;;-1.40;74.96;100230.63;1716189;81;21173;-59
2020/12/23 01:19:57;;;;;;;5.67;2.97;;;;;;;-1.38;75.01;100222.73;1719924;81;21244;-55
2020/12/23 01:22:25;;;;;;;7.77;3.40;;;;;;;-1.37;74.97;100215.25;1717195;81;21472;-59
2020/12/23 01:24:52;;;;;;;8.17;3.47;;;;;;;-1.36;75.01;100216.56;1728026;79;23061;-58
2020/12/23 01:27:19;;;;;;;9.50;3.97;;;;;;;-1.34;75.06;100208.66;1746386;79;21198;-56
2020/12/23 01:29:46;;;;;;;6.30;2.73;;;;;;;-1.32;75.06;100201.63;1750906;79;21186;-59
2020/12/23 01:32:13;;;;;;;5.67;2.67;;;;;;;-1.31;75.04;100189.77;1745142;79;21217;-56
2020/12/23 01:34:41;;;;;;;4.47;1.90;;;;;;;-1.30;75.04;100186.69;1743848;79;21167;-57
2020/12/23 01:37:08;;;;;;;5.90;2.03;;;;;;;-1.31;74.99;100179.20;1742210;79;21229;-58
2020/12/23 01:39:35;;;;;;;9.47;2.30;;;;;;;-1.31;75.04;100184.92;1753331;79;21525;-57
2020/12/23 01:42:02;;;;;;;6.77;2.90;;;;;;;-1.30;75.00;100182.29;1748858;79;21107;-57
2020/12/23 01:44:29;;;;;;;3.97;2.00;;;;;;;-1.29;75.05;100185.81;1746586;79;21173;-56
2020/12/23 01:46:57;;;;;;;6.17;3.07;;;;;;;-1.30;75.03;100184.05;1743348;79;21213;-59
2020/12/23 01:49:24;;;;;;;5.77;2.67;;;;;;;-1.29;75.07;100173.50;1752808;79;21237;-56
2020/12/23 01:51:51;;;;;;;5.47;2.10;;;;;;;-1.28;75.14;100164.70;1748805;79;21135;-56
2020/12/23 01:54:18;;;;;;;5.23;2.37;;;;;;;-1.24;75.18;100166.91;1747836;79;21174;-58
2020/12/23 01:56:45;;;;;;;6.93;3.37;;;;;;;-1.24;75.13;100165.59;1746690;79;21206;-56
2020/12/23 01:59:13;;;;;;;8.10;3.03;;;;;;;-1.24;75.14;100156.34;1751447;79;21174;-57
2020/12/23 02:01:47;;;;;;;9.73;3.10;;;;;;;-1.23;75.12;100156.79;1750048;79;21365;-57
2020/12/23 02:04:16;;;;;;;6.00;2.80;;;;;;;-1.23;75.17;100156.36;1745980;79;21190;-56
2020/12/23 02:06:43;;;;;;;8.80;3.37;;;;;;;-1.24;75.21;100144.45;1752940;79;21281;-56
2020/12/23 02:09:11;;;;;;;6.73;3.43;;;;;;;-1.24;75.24;100152.37;1748482;79;21178;-52
2020/12/23 02:11:39;;;;;;;7.87;3.00;;;;;;;-1.24;75.27;100141.38;1747501;79;21223;-56
2020/12/23 02:14:06;;;;;;;7.73;4.00;;;;;;;-1.24;75.33;100129.93;1746539;79;21413;-51
2020/12/23 02:16:33;;;;;;;6.57;3.20;;;;;;;-1.24;75.37;100129.49;1718409;79;21218;-53
2020/12/23 02:19:00;;;;;;;8.27;3.87;;;;;;;-1.23;75.45;100129.06;1747708;79;21233;-56
2020/12/23 02:21:27;;;;;;;6.93;3.07;;;;;;;-1.22;75.45;100125.55;1740063;79;21182;-53
2020/12/23 02:23:54;;;;;;;8.30;3.23;;;;;;;-1.21;75.46;100120.71;1767263;79;21683;-55
2020/12/23 02:26:22;;;;;;;7.87;3.70;;;;;;;-1.20;75.51;100110.59;1768171;79;21154;-52
2020/12/23 02:28:49;;;;;;;10.07;4.57;;;;;;;-1.19;75.48;100113.66;1767528;79;21651;-52
2020/12/23 02:31:17;;;;;;;9.67;3.63;;;;;;;-1.17;75.44;100111.47;1730243;80;21174;-53
2020/12/23 02:33:45;;;;;;;10.67;4.17;;;;;;;-1.15;75.47;100116.77;1732059;80;21194;-51
2020/12/23 02:36:12;;;;;;;9.13;4.03;;;;;;;-1.12;75.40;100105.34;1755054;79;21150;-56
2020/12/23 02:38:39;;;;;;;10.83;4.87;;;;;;;-1.13;75.39;100112.81;1734159;80;21905;-52
2020/12/23 02:43:39;;;;;;;11.47;5.70;;;;;;;-1.07;75.39;100091.27;1794261;78;26976;-51
2020/12/23 02:46:06;;;;;;;13.30;6.93;;;;;;;-1.12;75.37;100100.06;1773885;79;21115;-50
2020/12/23 02:48:34;;;;;;;12.87;6.43;;;;;;;-1.12;75.42;100099.62;1721605;80;22233;-56
2020/12/23 02:51:01;;;;;;;13.57;6.43;;;;;;;-1.10;75.42;100097.84;1771419;79;21207;-51
2020/12/23 02:53:28;;;;;;;14.33;6.53;;;;;;;-1.11;75.40;100094.79;1770749;79;21189;-51
2020/12/23 02:55:55;;;;;;;14.50;6.67;;;;;;;-1.11;75.41;100091.27;1775045;79;21174;-49
2020/12/23 02:58:22;;;;;;;15.33;6.90;;;;;;;-1.10;75.40;100096.95;1775265;79;21216;-53
2020/12/23 03:00:49;;;;;;;16.77;7.33;;;;;;;-1.10;75.47;100087.28;1739680;81;22326;-53
2020/12/23 03:03:17;;;;;;;16.63;7.53;;;;;;;-1.10;75.41;100088.59;1709708;82;21179;-50
2020/12/23 03:05:44;;;;;;;11.83;5.80;;;;;;;-1.12;75.44;100086.41;1716120;81;21072;-53
2020/12/23 03:08:11;;;;;;;15.60;7.57;;;;;;;-1.10;75.50;100078.03;1719434;81;21680;-53
2020/12/23 03:10:38;;;;;;;14.63;6.17;;;;;;;-1.08;75.50;100078.05;1714633;82;21178;-50
2020/12/23 03:13:05;;;;;;;16.73;7.47;;;;;;;-1.09;75.50;100079.80;1738175;80;21376;-52
2020/12/23 03:15:33;;;;;;;12.00;6.07;;;;;;;-1.06;75.50;100074.97;1712803;82;21234;-51
2020/12/23 03:18:00;;;;;;;14.30;6.70;;;;;;;-1.04;75.45;100071.47;1744509;80;21182;-51
2020/12/23 03:20:27;;;;;;;11.50;5.77;;;;;;;-1.03;75.44;100069.71;1715599;81;21557;-51
2020/12/23 03:22:54;;;;;;;12.03;4.63;;;;;;;-1.01;75.37;100064.86;1720282;81;21194;-55
2020/12/23 03:25:21;;;;;;;13.53;6.47;;;;;;;-1.00;75.36;100065.73;1719682;81;21641;-51
2020/12/23 03:27:48;;;;;;;11.07;4.43;;;;;;;-0.99;75.36;100067.51;1745506;80;21844;-53
2020/12/23 03:30:16;;;;;;;11.83;4.70;;;;;;;-0.99;75.36;100068.39;1713151;81;21143;-52
2020/12/23 03:32:43;;;;;;;9.53;5.43;;;;;;;-0.97;75.37;100058.72;1717212;81;21185;-53
2020/12/23 03:35:12;;;;;;;10.97;5.73;;;;;;;-0.96;75.33;100060.48;1713191;81;21219;-56
2020/12/23 03:37:39;;;;;;;10.50;4.87;;;;;;;-0.97;75.26;100060.03;1723078;81;21250;-53
2020/12/23 03:40:06;;;;;;;11.93;5.17;;;;;;;-0.97;75.30;100059.16;1745787;80;21219;-53
2020/12/23 03:42:33;;;;;;;7.87;4.57;;;;;;;-0.99;75.30;100052.54;1697896;81;21236;-57
2020/12/23 03:45:00;;;;;;;11.40;5.07;;;;;;;-0.99;75.33;100062.22;1744975;80;21732;-52
2020/12/23 03:47:27;;;;;;;6.77;2.90;;;;;;;-1.00;75.33;100052.09;1739385;80;21242;-54
2020/12/23 03:49:56;;;;;;;9.43;4.50;;;;;;;-1.01;75.32;100058.25;1740916;80;21184;-55
2020/12/23 03:52:23;;;;;;;9.13;4.70;;;;;;;-1.00;75.34;100061.34;1741139;80;21231;-52
2020/12/23 03:54:51;;;;;;;7.80;4.10;;;;;;;-1.01;75.35;100055.61;1741321;80;21208;-55
2020/12/23 03:57:18;;;;;;;6.03;2.77;;;;;;;-0.98;75.30;100053.42;1737001;80;21168;-56
2020/12/23 03:59:45;;;;;;;8.73;3.90;;;;;;;-0.98;75.25;100046.38;1738554;80;21223;-56
2020/12/23 04:02:12;;;;;;;8.03;2.87;;;;;;;-0.99;75.27;100049.89;1738802;80;21683;-53
2020/12/23 04:04:39;;;;;;;7.37;3.43;;;;;;;-0.97;75.28;100041.98;1736273;80;21195;-54
2020/12/23 04:07:06;;;;;;;6.23;3.70;;;;;;;-0.96;75.29;100046.39;1742394;80;21179;-53
2020/12/23 04:09:34;;;;;;;9.03;4.70;;;;;;;-0.96;75.27;100042.42;1743401;80;21851;-53
2020/12/23 04:12:01;;;;;;;8.23;4.43;;;;;;;-0.96;75.30;100041.98;1739412;80;21819;-52
2020/12/23 04:14:28;;;;;;;7.80;2.87;;;;;;;-0.99;75.32;100038.00;1740354;80;21691;-51
2020/12/23 04:16:56;;;;;;;7.33;4.50;;;;;;;-0.98;75.35;100027.88;1741311;80;21211;-54
2020/12/23 04:19:23;;;;;;;11.13;5.07;;;;;;;-0.97;75.30;100035.38;1739868;80;21187;-55
2020/12/23 04:21:51;;;;;;;12.03;5.07;;;;;;;-1.00;75.36;100032.71;1738311;80;21246;-54
2020/12/23 04:24:18;;;;;;;7.77;3.70;;;;;;;-1.00;75.39;100032.71;1743458;80;21187;-52
2020/12/23 04:26:46;;;;;;;11.07;5.23;;;;;;;-1.01;75.40;100029.19;1740343;80;22393;-55
2020/12/23 04:29:13;;;;;;;13.27;5.67;;;;;;;-1.03;75.45;100024.36;1739616;80;20964;-51
2020/12/23 04:31:40;;;;;;;6.97;3.37;;;;;;;-1.00;75.47;100034.92;1739616;80;21499;-51
2020/12/23 04:34:08;;;;;;;8.30;4.87;;;;;;;-0.99;75.49;100028.76;1740885;80;21182;-51
2020/12/23 04:36:35;;;;;;;10.83;4.37;;;;;;;-0.96;75.46;100038.47;1743116;80;21650;-51
2020/12/23 04:39:03;;;;;;;12.93;4.40;;;;;;;-0.98;75.39;100033.17;1737949;80;21272;-56
2020/12/23 04:41:31;;;;;;;10.43;5.23;;;;;;;-0.98;75.43;100037.13;1740365;80;21191;-53
2020/12/23 04:43:58;;;;;;;9.03;4.43;;;;;;;-0.97;75.45;100039.34;1751718;79;21373;-54
2020/12/23 04:46:26;;;;;;;7.17;4.03;;;;;;;-0.98;75.39;100041.09;1740456;79;21170;-51
2020/12/23 04:48:58;;;;;;;11.03;5.07;;;;;;;-0.98;75.41;100037.57;1695543;82;21195;-55
2020/12/23 04:51:36;;;;;;;9.60;4.63;;;;;;;-0.96;75.43;100034.06;1757676;79;21793;-54
2020/12/23 04:54:06;;;;;;;9.60;3.97;;;;;;;-0.95;75.40;100032.30;1762054;80;21127;-52
2020/12/23 04:56:35;;;;;;;10.23;4.60;;;;;;;-0.95;75.35;100033.19;1761771;79;21484;-52
2020/12/23 04:59:03;;;;;;;8.60;4.30;;;;;;;-0.96;75.41;100034.06;1760526;79;21207;-51
2020/12/23 05:01:31;;;;;;;10.47;5.03;;;;;;;-0.96;75.42;100034.06;1765094;79;21175;-54
2020/12/23 05:03:58;;;;;;;9.60;4.23;;;;;;;-0.96;75.42;100031.86;1759483;80;22061;-52
2020/12/23 05:06:26;;;;;;;11.63;4.97;;;;;;;-0.96;75.47;100031.42;1753604;79;21987;-56
2020/12/23 05:08:53;;;;;;;13.57;5.17;;;;;;;-0.94;75.44;100023.50;1760008;79;21231;-54
2020/12/23 05:11:21;;;;;;;11.40;5.17;;;;;;;-0.91;75.46;100022.16;1761855;79;21174;-55
2020/12/23 05:13:49;;;;;;;10.40;4.53;;;;;;;-0.93;75.41;100012.91;1760324;79;21191;-55
2020/12/23 05:16:23;;;;;;;11.07;4.83;;;;;;;-0.93;75.42;100018.62;1712641;79;21195;-53
2020/12/23 05:18:56;;;;;;;14.75;5.33;;;;;;;-0.94;75.46;100019.10;1697279;82;21147;-52
2020/12/23 05:21:23;;;;;;;14.70;6.10;;;;;;;-0.97;75.50;100020.41;1762619;80;21355;-50
2020/12/23 05:23:51;;;;;;;14.93;6.27;;;;;;;-0.99;75.55;100011.58;1759541;79;21621;-51
2020/12/23 05:26:19;;;;;;;16.63;6.83;;;;;;;-1.00;75.57;100008.49;1764721;79;21143;-53
2020/12/23 05:28:46;;;;;;;11.40;3.93;;;;;;;-1.02;75.69;100004.95;1739130;80;23589;-51
2020/12/23 05:31:15;;;;;;;13.90;5.50;;;;;;;-1.01;75.71;100001.44;1759569;79;21164;-52
2020/12/23 05:33:45;;;;;;;16.60;7.73;;;;;;;-1.01;75.75;100009.37;1760286;79;21495;-51
2020/12/23 05:36:17;;;;;;;15.83;6.57;;;;;;;-1.01;75.81;100006.73;1761007;79;21175;-55
2020/12/23 05:38:45;;;;;;;17.87;6.53;;;;;;;-1.00;75.89;100001.89;1760495;79;21645;-52
2020/12/23 05:41:14;;;;;;;15.57;5.70;;;;;;;-0.98;75.92;99997.50;1761257;79;22160;-52
2020/12/23 05:43:42;;;;;;;13.20;6.03;;;;;;;-0.97;75.96;99997.94;1763799;79;21215;-54
2020/12/23 05:46:11;;;;;;;11.17;5.30;;;;;;;-0.97;75.97;99999.27;1760010;79;21684;-57
2020/12/23 05:48:41;;;;;;;11.60;6.47;;;;;;;-0.95;76.02;100001.92;1759241;79;21147;-51
2020/12/23 05:51:09;;;;;;;13.50;7.37;;;;;;;-0.94;76.05;99999.28;1763587;79;21103;-56
2020/12/23 05:53:38;;;;;;;18.17;7.77;;;;;;;-0.94;76.09;99997.08;1768792;79;21543;-54
2020/12/23 05:56:07;;;;;;;14.37;6.70;;;;;;;-0.93;76.10;99998.81;1766231;79;21135;-53
2020/12/23 05:58:37;;;;;;;16.20;7.73;;;;;;;-0.92;76.11;99990.89;1765663;79;21440;-55
2020/12/23 06:01:08;;;;;;;12.73;5.70;;;;;;;-0.91;76.19;99990.02;1762709;79;21207;-53
2020/12/23 06:06:35;;;;;;;15.33;6.97;;;;;;;-0.84;76.24;99977.69;1870043;75;27321;-57
2020/12/23 06:09:06;;;;;;;14.93;6.53;;;;;;;-0.89;76.28;99979.02;1820958;77;21197;-56
2020/12/23 06:11:47;;;;;;;20.20;8.33;;;;;;;-0.91;76.36;99983.41;1816744;77;21363;-55
2020/12/23 06:14:21;;;;;;;17.50;7.73;;;;;;;-0.90;76.43;99972.41;1815145;77;21328;-51
2020/12/23 06:17:05;;;;;;;20.62;8.25;;;;;;;-0.88;76.53;99974.62;1819345;77;21197;-53
2020/12/23 06:19:36;;;;;;;21.77;9.20;;;;;;;-0.90;76.56;99962.72;1814706;77;21178;-53
2020/12/23 06:22:09;;;;;;;20.07;7.90;;;;;;;-0.88;76.62;99974.62;1819205;77;21158;-57
2020/12/23 06:24:36;;;;;;;17.87;7.93;;;;;;;-0.89;76.70;99973.73;1815524;77;22792;-53
2020/12/23 06:27:06;;;;;;;20.43;7.60;;;;;;;-0.88;76.81;99974.62;1815437;77;21166;-52
2020/12/23 06:29:36;;;;;;;24.87;9.53;;;;;;;-0.90;76.90;99973.28;1820128;77;21368;-53
2020/12/23 06:32:05;;;;;;;25.47;9.13;;;;;;;-0.90;76.99;99973.28;1822627;77;21164;-51
2020/12/23 06:34:37;;;;;;;15.50;6.90;;;;;;;-0.89;77.11;99972.84;1817127;77;21186;-54
2020/12/23 06:37:17;;;;;;;28.60;11.07;;;;;;;-0.88;77.21;99964.05;1812876;77;21424;-51
2020/12/23 06:39:45;;;;;;;24.30;10.90;;;;;;;-0.87;77.29;99953.48;1813752;77;21214;-53
2020/12/23 06:42:17;;;;;;;26.60;11.47;;;;;;;-0.87;77.42;99935.42;1818739;77;21155;-53
2020/12/23 06:45:02;;;;;;;23.93;9.20;;;;;;;-0.86;77.50;99938.07;1817169;77;21383;-54
2020/12/23 06:47:32;;;;;;;25.43;12.03;;;;;;;-0.84;77.68;99951.26;1771106;79;21609;-53
2020/12/23 06:50:13;;;;;;;25.37;11.03;;;;;;;-0.85;77.74;99950.38;1752308;80;21727;-52
2020/12/23 06:52:45;;;;;;;28.67;12.27;;;;;;;-0.86;77.87;99943.36;1757899;80;21661;-53
2020/12/23 06:55:15;;;;;;;28.70;12.33;;;;;;;-0.85;77.96;99953.48;1747079;80;21202;-54
2020/12/23 06:57:46;;;;;;;32.53;13.23;;;;;;;-0.84;78.13;99957.87;1745445;80;21111;-52
2020/12/23 07:00:30;;;;;;;24.70;10.17;;;;;;;-0.84;78.16;99954.78;1749447;80;21736;-52
2020/12/23 07:03:05;;;;;;;28.73;11.85;;;;;;;-0.83;78.22;99953.91;1745769;80;21809;-53
2020/12/23 07:05:41;;;;;;;34.13;13.57;;;;;;;-0.82;78.33;99957.00;1781400;79;21118;-53
2020/12/23 07:08:12;;;;;;;23.47;10.23;;;;;;;-0.79;78.28;99961.41;1786569;79;21120;-52
2020/12/23 07:10:48;;;;;;;22.07;9.70;;;;;;;-0.81;78.31;99949.52;1782104;79;21182;-53
2020/12/23 07:13:17;;;;;;;26.13;10.60;;;;;;;-0.81;78.49;99960.08;1759341;80;21130;-53
2020/12/23 07:15:57;;;;;;;32.77;13.90;;;;;;;-0.80;78.46;99967.58;1759376;80;21055;-54
2020/12/23 07:18:29;;;;;;;25.13;13.10;;;;;;;-0.80;78.45;99963.17;1757408;80;21180;-53
2020/12/23 07:21:02;;;;;;;25.97;12.23;;;;;;;-0.79;78.52;99975.52;1758920;80;21207;-53
2020/12/23 07:23:31;;;;;;;32.53;11.90;;;;;;;-0.80;78.62;99975.06;1757621;80;21171;-54
2020/12/23 07:26:02;;;;;;;24.53;11.90;;;;;;;-0.79;78.76;99975.52;1758932;80;21201;-58
2020/12/23 07:28:42;;;;;;;30.70;14.07;;;;;;;-0.72;78.77;99976.39;1753767;80;21391;-54
2020/12/23 07:31:10;;;;;;;31.13;13.73;;;;;;;-0.57;78.66;99964.48;1756099;80;21219;-53
2020/12/23 07:33:39;;;;;;;33.20;14.23;;;;;;;-0.47;78.48;99946.86;1753221;80;21195;-58
2020/12/23 07:36:07;;;;;;;31.40;13.67;;;;;;;-0.43;78.35;99941.59;1755090;80;21194;-52
2020/12/23 07:38:38;;;;;;;33.50;13.90;;;;;;;-0.42;78.29;99943.75;1753423;79;22041;-54
2020/12/23 07:41:06;;;;;;;28.73;12.20;;;;;;;-0.43;78.28;99938.06;1780059;78;21368;-56
2020/12/23 07:43:33;;;;;;;38.13;14.33;;;;;;;-0.43;78.27;99942.02;1757140;79;21146;-54
2020/12/23 07:46:00;;;;;;;29.97;12.70;;;;;;;-0.45;78.34;99949.07;1758762;79;21159;-56
2020/12/23 07:51:07;;;;;;;34.90;21.20;;;;;;;-0.46;78.46;99929.67;1839494;74;28735;-57
2020/12/23 07:53:34;;;;;;;26.23;13.80;;;;;;;-0.45;78.55;99929.23;1775899;76;21525;-57
2020/12/23 07:56:05;;;;;;;27.33;13.30;;;;;;;-0.38;78.43;99929.66;1829663;76;21247;-55
2020/12/23 07:58:34;;;;;;;26.60;12.80;;;;;;;-0.37;78.58;99918.20;1828668;76;21024;-59
2020/12/23 08:01:02;;;;;;;27.17;12.23;;;;;;;-0.39;78.66;99919.52;1830646;76;21230;-57
2020/12/23 08:03:31;;;;;;;22.80;11.13;;;;;;;-0.40;78.77;99922.16;1829923;76;21922;-52
2020/12/23 08:06:06;;;;;;;23.73;10.33;;;;;;;-0.42;78.87;99924.80;1828595;76;21020;-53
2020/12/23 08:08:36;;;;;;;21.70;9.03;;;;;;;-0.44;79.09;99918.66;1811546;77;21869;-52
2020/12/23 08:11:11;;;;;;;18.47;7.60;;;;;;;-0.44;79.21;99912.48;1805554;77;21208;-54
2020/12/23 08:13:39;;;;;;;19.52;9.40;;;;;;;-0.45;79.24;99910.28;1811207;77;21215;-54
2020/12/23 08:16:16;;;;;;;24.50;12.30;;;;;;;-0.45;79.16;99912.05;1806045;77;21520;-52
2020/12/23 08:18:44;;;;;;;24.63;11.20;;;;;;;-0.49;79.17;99911.16;1805460;77;21113;-53
2020/12/23 08:21:14;;;;;;;20.27;9.43;;;;;;;-0.50;79.21;99909.39;1804570;77;22128;-54
2020/12/23 08:23:42;;;;;;;26.47;10.20;;;;;;;-0.50;79.20;99915.12;1806942;77;21060;-53
2020/12/23 08:26:10;;;;;;;24.63;9.90;;;;;;;-0.51;79.26;99905.45;1803143;77;21185;-54
2020/12/23 08:28:42;;;;;;;15.83;7.50;;;;;;;-0.53;79.31;99912.50;1807856;77;22863;-52
2020/12/23 08:31:19;;;;;;;24.07;11.20;;;;;;;-0.55;79.47;99903.68;1808883;77;21568;-54
2020/12/23 08:33:46;;;;;;;19.47;8.90;;;;;;;-0.55;79.49;99899.72;1808811;77;21201;-53
2020/12/23 08:36:15;;;;;;;19.23;11.00;;;;;;;-0.56;79.59;99907.20;1776269;78;21158;-54
2020/12/23 08:38:42;;;;;;;20.03;9.57;;;;;;;-0.57;79.61;99906.77;1804441;77;21549;-57
2020/12/23 08:41:17;;;;;;;21.43;9.97;;;;;;;-0.56;79.70;99903.23;1736232;80;21195;-52
2020/12/23 08:43:48;;;;;;;20.35;9.03;;;;;;;-0.56;79.66;99899.27;1738641;80;21202;-57
2020/12/23 08:46:23;;;;;;;25.57;12.10;;;;;;;-0.57;79.75;99893.55;1765120;79;21582;-61
2020/12/23 08:48:51;;;;;;;21.82;10.63;;;;;;;-0.58;79.75;99892.66;1735050;80;21194;-58
2020/12/23 08:51:19;;;;;;;25.80;10.80;;;;;;;-0.57;79.79;99893.10;1742129;80;21201;-53
2020/12/23 08:53:52;;;;;;;25.80;10.80;;;;;;;-0.56;79.86;99885.61;1739000;80;21807;-57
2020/12/23 08:56:32;;;;;;;20.43;9.60;;;;;;;-0.57;79.95;99885.17;1737000;80;21304;-54
2020/12/23 08:59:09;;;;;;;22.45;10.58;;;;;;;-0.60;80.07;99883.88;1736426;80;22021;-60
2020/12/23 09:01:36;;;;;;;17.27;7.67;;;;;;;-0.59;80.19;99883.40;1736492;80;26656;-52
2020/12/23 09:04:05;;;;;;;21.57;9.77;;;;;;;-0.60;80.29;99883.88;1736395;80;21162;-52
2020/12/23 09:06:36;;;;;;;17.00;9.83;;;;;;;-0.58;80.37;99877.23;1740570;80;21361;-52
2020/12/23 09:09:22;;;;;;;20.67;9.97;;;;;;;-0.58;80.39;99870.63;1737520;80;21669;-54
2020/12/23 09:11:53;;;;;;;18.20;8.57;;;;;;;-0.59;80.42;99876.35;1738604;80;21432;-52
2020/12/23 09:14:38;;;;;;;19.10;9.53;;;;;;;-0.58;80.46;99871.50;1741500;80;21233;-52
2020/12/23 09:17:22;;;;;;;23.55;9.40;;;;;;;-0.57;80.56;99867.10;1737601;80;21178;-55
2020/12/23 09:19:57;;;;;;;22.05;10.30;;;;;;;-0.57;80.64;99862.70;1738466;80;21203;-56
2020/12/23 09:22:29;;;;;;;;;;;;;;;-0.57;80.71;99858.73;1741103;80;21786;-52
2020/12/23 09:25:27;;;;;;;15.53;8.73;;;;;;;-0.59;80.91;99857.84;1738751;80;22159;-54
2020/12/23 09:28:04;;;;;;;22.70;11.40;;;;;;;-0.58;81.09;99860.93;1706154;81;21146;-53
2020/12/23 09:30:40;;;;;;;23.80;10.90;;;;;;;-0.58;81.28;99851.68;1709950;82;21119;-54
2020/12/23 09:33:18;;;;;;;15.97;7.50;;;;;;;-0.54;81.36;99841.99;1870171;75;26905;-57
2020/12/23 09:35:49;;;;;;;24.20;11.07;;;;;;;-0.57;81.40;99846.83;1776132;78;21203;-54
2020/12/23 09:38:23;;;;;;;22.37;10.80;;;;;;;-0.57;81.44;99845.52;1813268;78;21340;-54
2020/12/23 09:40:52;;;;;;;23.43;11.13;;;;;;;-0.54;81.45;99835.38;1751695;78;21063;-54
2020/12/23 09:43:22;;;;;;;22.43;10.37;;;;;;;-0.54;81.39;99832.30;1810897;78;21860;-54
2020/12/23 09:45:53;;;;;;;20.33;10.83;;;;;;;-0.52;81.37;99834.94;1765846;78;21427;-55
2020/12/23 09:48:21;;;;;;;20.00;9.70;;;;;;;-0.50;81.40;99838.44;1777056;78;20986;-53
2020/12/23 09:50:52;;;;;;;20.07;9.80;;;;;;;-0.49;81.32;99831.83;1786718;79;22178;-53
2020/12/23 09:53:19;;;;;;;13.27;7.80;;;;;;;-0.48;81.39;99831.39;1781380;78;21164;-53
2020/12/23 09:55:46;;;;;;;18.23;8.50;;;;;;;-0.44;81.37;99825.22;1785256;79;21020;-53
2020/12/23 09:58:14;;;;;;;18.47;10.03;;;;;;;-0.42;81.29;99822.11;1779363;79;21183;-54
2020/12/23 10:00:42;;;;;;;19.83;9.97;;;;;;;-0.41;81.29;99814.17;1782403;79;21202;-53
2020/12/23 10:03:10;;;;;;;15.90;10.27;;;;;;;-0.39;81.28;99816.38;1783941;78;21726;-53
2020/12/23 10:05:39;;;;;;;16.97;9.20;;;;;;;-0.38;81.21;99806.69;1785862;79;21200;-53
2020/12/23 10:08:06;;;;;;;18.23;8.50;;;;;;;-0.37;81.19;99800.95;1766487;79;21200;-56
2020/12/23 10:10:35;;;;;;;18.27;9.10;;;;;;;-0.38;81.19;99798.75;1758856;79;21619;-56
2020/12/23 10:13:03;;;;;;;14.63;8.33;;;;;;;-0.37;81.18;99796.55;1758497;79;21084;-54
2020/12/23 10:15:30;;;;;;;19.07;9.70;;;;;;;-0.36;81.27;99794.78;1761565;79;22623;-54
2020/12/23 10:17:57;;;;;;;17.53;9.60;;;;;;;-0.35;81.31;99793.45;1759570;79;21206;-53
2020/12/23 10:20:24;;;;;;;17.00;8.80;;;;;;;-0.35;81.33;99788.17;1748614;80;21259;-56
2020/12/23 10:22:51;;;;;;;17.03;9.27;;;;;;;-0.33;81.30;99789.45;1780203;78;21179;-54
2020/12/23 10:25:18;;;;;;;19.33;9.77;;;;;;;-0.32;81.29;99785.93;1799402;78;21703;-53
2020/12/23 10:27:46;;;;;;;16.17;9.50;;;;;;;-0.30;81.33;99788.13;1747418;80;23374;-52
2020/12/23 10:30:13;;;;;;;19.33;8.07;;;;;;;-0.30;81.32;99787.69;1779026;78;21194;-54
2020/12/23 10:32:40;;;;;;;18.50;8.37;;;;;;;-0.30;81.32;99781.52;1782616;78;21549;-53
2020/12/23 10:35:07;;;;;;;15.20;8.17;;;;;;;-0.31;81.31;99776.67;1783211;78;21187;-53
2020/12/23 10:37:36;;;;;;;14.57;7.33;;;;;;;-0.31;81.31;99771.38;1782286;78;21758;-56
2020/12/23 10:40:05;;;;;;;15.77;8.73;;;;;;;-0.28;81.34;99769.17;1740715;81;21118;-54
2020/12/23 10:42:33;;;;;;;11.37;6.87;;;;;;;-0.29;81.41;99772.27;1738738;81;21147;-55
2020/12/23 10:45:00;;;;;;;10.90;6.17;;;;;;;-0.28;81.35;99762.56;1746950;80;21225;-55
2020/12/23 10:47:29;;;;;;;15.30;7.33;;;;;;;-0.29;81.40;99760.80;1760631;79;21201;-54
2020/12/23 10:49:57;;;;;;;11.10;5.70;;;;;;;-0.30;81.49;99761.24;1763670;79;21650;-55
2020/12/23 10:52:24;;;;;;;13.00;7.83;;;;;;;-0.30;81.56;99759.92;1761911;79;21264;-53
2020/12/23 10:54:52;;;;;;;15.60;8.43;;;;;;;-0.32;81.59;99746.26;1759621;79;21601;-55
2020/12/23 10:57:19;;;;;;;14.67;7.77;;;;;;;-0.36;81.62;99745.41;1761849;79;22489;-56
2020/12/23 10:59:46;;;;;;;12.37;7.60;;;;;;;-0.34;81.76;99736.16;1763616;79;21212;-55
2020/12/23 11:02:13;;;;;;;17.13;8.40;;;;;;;-0.34;81.82;99744.09;1762668;79;21445;-55
2020/12/23 11:04:41;;;;;;;12.13;7.60;;;;;;;-0.33;81.94;99736.56;1764370;79;21213;-55
2020/12/23 11:07:08;;;;;;;15.20;9.17;;;;;;;-0.31;82.00;99734.35;1762568;79;21145;-55
2020/12/23 11:09:36;;;;;;;14.63;7.87;;;;;;;-0.28;81.98;99730.38;1764016;79;21570;-57
2020/12/23 11:12:03;;;;;;;14.27;8.27;;;;;;;-0.26;82.00;99727.30;1767703;79;21093;-54
2020/12/23 11:14:30;;;;;;;9.83;5.40;;;;;;;-0.23;81.97;99725.05;1765539;79;22931;-53
2020/12/23 11:16:58;;;;;;;14.60;7.13;;;;;;;-0.18;81.93;99727.25;1783021;78;21452;-54
2020/12/23 11:19:25;;;;;;;10.73;6.30;;;;;;;-0.16;81.88;99732.95;1786054;78;21479;-55
2020/12/23 11:21:53;;;;;;;13.03;7.10;;;;;;;-0.12;81.86;99724.12;1750202;80;21180;-54
2020/12/23 11:24:20;;;;;;;14.23;7.07;;;;;;;-0.08;81.84;99728.48;1764558;80;21733;-57
2020/12/23 11:26:48;;;;;;;9.97;6.57;;;;;;;-0.02;81.79;99728.91;1751905;79;21177;-57
2020/12/23 11:29:15;;;;;;;11.40;6.17;;;;;;;0.04;81.73;99725.34;1777300;80;21602;-56
2020/12/23 11:31:43;;;;;;;12.77;7.63;;;;;;;0.12;81.62;99733.67;1771171;79;21210;-54
2020/12/23 11:34:10;;;;;;;12.03;6.70;;;;;;;0.17;81.43;99725.23;1747638;80;21217;-53
2020/12/23 11:36:37;;;;;;;12.07;6.93;;;;;;;0.21;81.31;99723.45;1752646;80;21137;-54
2020/12/23 11:39:05;;;;;;;10.27;5.97;;;;;;;0.21;81.17;99723.02;1749653;80;21204;-56